sensor_id;sensor_type;location;lat;lon;timestamp;pressure;altitude;pressure_sealevel;temperature;humidity
34205;BME280;20471;49.680;20.074;2024-02-15T00:04:12;97706.45;;;5.00;68.34
34205;BME280;20471;49.680;20.074;2024-02-15T00:07:19;97706.59;;;4.96;68.43
34205;BME280;20471;49.680;20.074;2024-02-15T00:10:11;97706.05;;;4.96;68.27
34205;BME280;20471;49.680;20.074;2024-02-15T00:13:16;97699.98;;;4.97;68.30
34205;BME280;20471;49.680;20.074;2024-02-15T00:16:24;97700.80;;;4.99;68.51
34205;BME280;20471;49.680;20.074;2024-02-15T00:18:59;97699.23;;;5.03;68.49
34205;BME280;20471;49.680;20.074;2024-02-15T00:21:52;97697.77;;;5.03;68.36
34205;BME280;20471;49.680;20.074;2024-02-15T00:24:59;97697.69;;;5.04;68.41
34205;BME280;20471;49.680;20.074;2024-02-15T00:27:56;97697.15;;;5.04;68.44
34205;BME280;20471;49.680;20.074;2024-02-15T00:30:39;97695.81;;;5.06;68.43
34205;BME280;20471;49.680;20.074;2024-02-15T00:33:46;97695.59;;;5.10;68.65
34205;BME280;20471;49.680;20.074;2024-02-15T00:36:15;97696.34;;;5.09;68.87
34205;BME280;20471;49.680;20.074;2024-02-15T00:39:23;97696.67;;;5.08;68.71
34205;BME280;20471;49.680;20.074;2024-02-15T00:45:04;97692.87;;;5.04;68.85
34205;BME280;20471;49.680;20.074;2024-02-15T00:48:03;97691.48;;;5.02;68.90
34205;BME280;20471;49.680;20.074;2024-02-15T00:50:42;97689.16;;;5.02;69.08
34205;BME280;20471;49.680;20.074;2024-02-15T00:53:29;97688.42;;;5.02;69.13
34205;BME280;20471;49.680;20.074;2024-02-15T00:55:58;97686.28;;;5.02;69.08
34205;BME280;20471;49.680;20.074;2024-02-15T00:59:06;97682.52;;;5.02;68.87
34205;BME280;20471;49.680;20.074;2024-02-15T01:02:12;97680.61;;;5.02;68.97
34205;BME280;20471;49.680;20.074;2024-02-15T01:04:52;97678.28;;;4.98;68.90
34205;BME280;20471;49.680;20.074;2024-02-15T01:07:51;97683.37;;;4.98;68.94
34205;BME280;20471;49.680;20.074;2024-02-15T01:13:44;97680.76;;;4.92;69.11
34205;BME280;20471;49.680;20.074;2024-02-15T01:16:50;97684.40;;;4.92;69.28
34205;BME280;20471;49.680;20.074;2024-02-15T01:19:29;97684.43;;;4.90;69.18
34205;BME280;20471;49.680;20.074;2024-02-15T01:22:03;97681.61;;;4.89;69.39
34205;BME280;20471;49.680;20.074;2024-02-15T01:24:39;97680.31;;;4.87;69.38
34205;BME280;20471;49.680;20.074;2024-02-15T01:30:32;97683.45;;;4.86;69.45
34205;BME280;20471;49.680;20.074;2024-02-15T01:36:28;97685.82;;;4.82;69.55
34205;BME280;20471;49.680;20.074;2024-02-15T01:38:59;97689.02;;;4.84;69.78
34205;BME280;20471;49.680;20.074;2024-02-15T01:44:52;97692.58;;;4.84;69.88
34205;BME280;20471;49.680;20.074;2024-02-15T01:50:01;97689.88;;;4.84;69.84
34205;BME280;20471;49.680;20.074;2024-02-15T01:52:59;97688.88;;;4.84;69.84
34205;BME280;20471;49.680;20.074;2024-02-15T02:01:20;97689.42;;;4.88;69.77
34205;BME280;20471;49.680;20.074;2024-02-15T02:03:49;97690.29;;;4.92;69.85
34205;BME280;20471;49.680;20.074;2024-02-15T02:06:37;97691.39;;;4.96;69.98
34205;BME280;20471;49.680;20.074;2024-02-15T02:09:05;97688.11;;;4.96;70.08
34205;BME280;20471;49.680;20.074;2024-02-15T02:12:12;97692.64;;;4.96;70.12
34205;BME280;20471;49.680;20.074;2024-02-15T02:18:07;97694.08;;;4.98;70.15
34205;BME280;20471;49.680;20.074;2024-02-15T02:20:56;97694.38;;;4.96;70.27
34205;BME280;20471;49.680;20.074;2024-02-15T02:23:37;97693.09;;;4.94;70.32
34205;BME280;20471;49.680;20.074;2024-02-15T02:26:10;97694.09;;;4.94;70.38
34205;BME280;20471;49.680;20.074;2024-02-15T02:32:06;97694.95;;;4.98;70.57
34205;BME280;20471;49.680;20.074;2024-02-15T02:34:56;97695.35;;;5.01;70.59
34205;BME280;20471;49.680;20.074;2024-02-15T02:38:03;97695.05;;;5.03;70.53
34205;BME280;20471;49.680;20.074;2024-02-15T02:40:32;97694.73;;;5.08;70.55
34205;BME280;20471;49.680;20.074;2024-02-15T02:43:26;97690.27;;;5.09;70.76
34205;BME280;20471;49.680;20.074;2024-02-15T02:46:33;97689.83;;;5.07;70.84
34205;BME280;20471;49.680;20.074;2024-02-15T02:49:40;97693.75;;;5.05;70.93
34205;BME280;20471;49.680;20.074;2024-02-15T02:52:08;97693.20;;;5.07;71.04
34205;BME280;20471;49.680;20.074;2024-02-15T02:54:55;97694.13;;;5.08;71.02
34205;BME280;20471;49.680;20.074;2024-02-15T02:57:24;97695.96;;;5.10;71.30
34205;BME280;20471;49.680;20.074;2024-02-15T03:00:32;97696.23;;;5.09;71.39
34205;BME280;20471;49.680;20.074;2024-02-15T03:03:01;97696.75;;;5.07;71.43
34205;BME280;20471;49.680;20.074;2024-02-15T03:05:38;97697.51;;;5.08;71.41
34205;BME280;20471;49.680;20.074;2024-02-15T03:08:30;97695.29;;;5.12;71.25
34205;BME280;20471;49.680;20.074;2024-02-15T03:13:56;97698.43;;;5.10;71.37
34205;BME280;20471;49.680;20.074;2024-02-15T03:19:57;97696.80;;;5.12;71.37
34205;BME280;20471;49.680;20.074;2024-02-15T03:25:20;97698.14;;;5.12;71.53
34205;BME280;20471;49.680;20.074;2024-02-15T03:30:41;97697.06;;;5.14;71.80
34205;BME280;20471;49.680;20.074;2024-02-15T03:33:40;97696.80;;;5.13;71.73
34205;BME280;20471;49.680;20.074;2024-02-15T03:36:12;97695.96;;;5.13;71.68
34205;BME280;20471;49.680;20.074;2024-02-15T03:39:13;97694.52;;;5.15;71.66
34205;BME280;20471;49.680;20.074;2024-02-15T03:44:35;97697.20;;;5.16;71.76
34205;BME280;20471;49.680;20.074;2024-02-15T03:47:05;97696.80;;;5.16;71.69
34205;BME280;20471;49.680;20.074;2024-02-15T03:50:12;97697.40;;;5.17;71.65
34205;BME280;20471;49.680;20.074;2024-02-15T03:53:20;97693.36;;;5.18;71.94
34205;BME280;20471;49.680;20.074;2024-02-15T03:56:20;97693.33;;;5.17;72.00
34205;BME280;20471;49.680;20.074;2024-02-15T03:59:24;97691.62;;;5.15;72.02
34205;BME280;20471;49.680;20.074;2024-02-15T04:02:34;97693.11;;;5.13;72.02
34205;BME280;20471;49.680;20.074;2024-02-15T04:05:42;97685.59;;;5.10;72.08
34205;BME280;20471;49.680;20.074;2024-02-15T04:14:12;97681.14;;;5.08;72.04
34205;BME280;20471;49.680;20.074;2024-02-15T04:16:50;97685.59;;;5.08;71.97
34205;BME280;20471;49.680;20.074;2024-02-15T04:19:58;97685.19;;;5.08;72.01
34205;BME280;20471;49.680;20.074;2024-02-15T04:22:26;97689.86;;;5.07;72.07
34205;BME280;20471;49.680;20.074;2024-02-15T04:25:14;97692.11;;;5.06;72.09
34205;BME280;20471;49.680;20.074;2024-02-15T04:28:23;97696.39;;;5.06;72.24
34205;BME280;20471;49.680;20.074;2024-02-15T04:31:01;97695.15;;;5.06;72.31
34205;BME280;20471;49.680;20.074;2024-02-15T04:33:35;97696.79;;;5.05;72.41
34205;BME280;20471;49.680;20.074;2024-02-15T04:36:15;97694.89;;;5.06;72.58
34205;BME280;20471;49.680;20.074;2024-02-15T04:38:54;97693.71;;;5.06;72.48
34205;BME280;20471;49.680;20.074;2024-02-15T04:45:03;97694.95;;;5.04;72.60
34205;BME280;20471;49.680;20.074;2024-02-15T04:50:33;97688.06;;;5.05;72.61
34205;BME280;20471;49.680;20.074;2024-02-15T04:53:41;97684.64;;;5.07;72.67
34205;BME280;20471;49.680;20.074;2024-02-15T04:56:27;97686.33;;;5.10;72.61
34205;BME280;20471;49.680;20.074;2024-02-15T04:59:15;97686.42;;;5.12;72.60
34205;BME280;20471;49.680;20.074;2024-02-15T05:04:49;97687.40;;;5.14;72.61
34205;BME280;20471;49.680;20.074;2024-02-15T05:10:25;97693.45;;;5.14;72.71
34205;BME280;20471;49.680;20.074;2024-02-15T05:13:32;97692.65;;;5.14;72.73
34205;BME280;20471;49.680;20.074;2024-02-15T05:18:56;97691.98;;;5.15;72.87
34205;BME280;20471;49.680;20.074;2024-02-15T05:22:04;97690.95;;;5.14;72.84
34205;BME280;20471;49.680;20.074;2024-02-15T05:25:13;97692.35;;;5.15;72.99
34205;BME280;20471;49.680;20.074;2024-02-15T05:28:22;97698.84;;;5.12;73.09
34205;BME280;20471;49.680;20.074;2024-02-15T05:34:24;97699.23;;;5.12;73.14
34205;BME280;20471;49.680;20.074;2024-02-15T05:37:13;97698.91;;;5.14;73.08
34205;BME280;20471;49.680;20.074;2024-02-15T05:39:41;97700.29;;;5.14;73.17
34205;BME280;20471;49.680;20.074;2024-02-15T05:42:48;97699.27;;;5.15;73.21
34205;BME280;20471;49.680;20.074;2024-02-15T05:45:48;97701.85;;;5.14;73.16
34205;BME280;20471;49.680;20.074;2024-02-15T05:48:48;97705.73;;;5.13;73.28
34205;BME280;20471;49.680;20.074;2024-02-15T05:51:44;97705.99;;;5.11;73.29
34205;BME280;20471;49.680;20.074;2024-02-15T05:54:52;97706.46;;;5.11;73.45
34205;BME280;20471;49.680;20.074;2024-02-15T06:00:48;97716.43;;;5.13;73.48
34205;BME280;20471;49.680;20.074;2024-02-15T06:03:41;97717.54;;;5.14;73.44
34205;BME280;20471;49.680;20.074;2024-02-15T06:06:32;97725.98;;;5.17;73.38
34205;BME280;20471;49.680;20.074;2024-02-15T06:15:30;97724.91;;;5.25;73.49
34205;BME280;20471;49.680;20.074;2024-02-15T06:18:25;97725.15;;;5.26;73.40
34205;BME280;20471;49.680;20.074;2024-02-15T06:21:35;97729.63;;;5.29;73.37
34205;BME280;20471;49.680;20.074;2024-02-15T06:24:42;97732.15;;;5.32;73.55
34205;BME280;20471;49.680;20.074;2024-02-15T06:29:53;97740.82;;;5.34;73.66
34205;BME280;20471;49.680;20.074;2024-02-15T06:33:09;97742.29;;;5.37;73.65
34205;BME280;20471;49.680;20.074;2024-02-15T06:36:34;97742.73;;;5.41;73.79
34205;BME280;20471;49.680;20.074;2024-02-15T06:42:25;97746.46;;;5.43;73.90
34205;BME280;20471;49.680;20.074;2024-02-15T06:45:32;97747.95;;;5.42;73.82
34205;BME280;20471;49.680;20.074;2024-02-15T06:48:25;97752.66;;;5.43;73.85
34205;BME280;20471;49.680;20.074;2024-02-15T06:51:07;97753.70;;;5.45;73.76
34205;BME280;20471;49.680;20.074;2024-02-15T06:54:20;97757.98;;;5.50;73.77
34205;BME280;20471;49.680;20.074;2024-02-15T07:00:27;97754.61;;;5.56;73.93
34205;BME280;20471;49.680;20.074;2024-02-15T07:03:37;97752.24;;;5.58;73.84
34205;BME280;20471;49.680;20.074;2024-02-15T07:06:44;97753.81;;;5.62;73.89
34205;BME280;20471;49.680;20.074;2024-02-15T07:15:36;97747.84;;;5.73;74.08
34205;BME280;20471;49.680;20.074;2024-02-15T07:18:27;97750.42;;;5.80;73.99
34205;BME280;20471;49.680;20.074;2024-02-15T07:21:35;97748.71;;;5.86;74.01
34205;BME280;20471;49.680;20.074;2024-02-15T07:24:41;97743.63;;;5.90;74.01
34205;BME280;20471;49.680;20.074;2024-02-15T07:27:30;97746.28;;;5.95;73.88
34205;BME280;20471;49.680;20.074;2024-02-15T07:30:23;97742.02;;;6.00;73.77
34205;BME280;20471;49.680;20.074;2024-02-15T07:33:12;97743.28;;;6.05;73.88
34205;BME280;20471;49.680;20.074;2024-02-15T07:39:03;97741.38;;;6.19;73.79
34205;BME280;20471;49.680;20.074;2024-02-15T07:41:53;97741.88;;;6.28;73.79
34205;BME280;20471;49.680;20.074;2024-02-15T07:45:00;97741.20;;;6.35;73.75
34205;BME280;20471;49.680;20.074;2024-02-15T07:50:47;97745.66;;;6.50;73.43
34205;BME280;20471;49.680;20.074;2024-02-15T07:53:55;97753.79;;;6.59;73.26
34205;BME280;20471;49.680;20.074;2024-02-15T07:56:42;97752.77;;;6.66;73.13
34205;BME280;20471;49.680;20.074;2024-02-15T08:05:41;97741.95;;;6.89;72.65
34205;BME280;20471;49.680;20.074;2024-02-15T08:08:31;97742.41;;;6.99;72.61
34205;BME280;20471;49.680;20.074;2024-02-15T08:11:40;97741.84;;;7.09;72.63
34205;BME280;20471;49.680;20.074;2024-02-15T08:14:45;97743.33;;;7.18;72.45
34205;BME280;20471;49.680;20.074;2024-02-15T08:20:57;97742.29;;;7.32;72.02
34205;BME280;20471;49.680;20.074;2024-02-15T08:29:47;97745.30;;;7.47;71.76
34205;BME280;20471;49.680;20.074;2024-02-15T08:32:54;97744.48;;;7.50;71.65
34205;BME280;20471;49.680;20.074;2024-02-15T08:35:34;97750.14;;;7.55;71.53
34205;BME280;20471;49.680;20.074;2024-02-15T08:50:48;97753.21;;;7.82;71.16
34205;BME280;20471;49.680;20.074;2024-02-15T08:53:37;97754.52;;;7.87;71.00
34205;BME280;20471;49.680;20.074;2024-02-15T08:59:37;97751.70;;;7.97;70.54
34205;BME280;20471;49.680;20.074;2024-02-15T09:02:39;97750.56;;;8.01;70.18
34205;BME280;20471;49.680;20.074;2024-02-15T09:08:44;97745.40;;;8.08;70.24
34205;BME280;20471;49.680;20.074;2024-02-15T09:11:51;97745.89;;;8.14;70.01
34205;BME280;20471;49.680;20.074;2024-02-15T09:14:58;97745.52;;;8.21;70.10
34205;BME280;20471;49.680;20.074;2024-02-15T09:18:05;97751.56;;;8.27;69.99
34205;BME280;20471;49.680;20.074;2024-02-15T09:24:22;97757.00;;;8.36;69.51
34205;BME280;20471;49.680;20.074;2024-02-15T09:27:32;97754.71;;;8.42;69.33
34205;BME280;20471;49.680;20.074;2024-02-15T09:30:24;97749.56;;;8.48;69.19
34205;BME280;20471;49.680;20.074;2024-02-15T09:33:35;97746.10;;;8.56;69.42
34205;BME280;20471;49.680;20.074;2024-02-15T09:36:24;97745.79;;;8.62;69.17
34205;BME280;20471;49.680;20.074;2024-02-15T09:39:09;97748.55;;;8.69;69.37
34205;BME280;20471;49.680;20.074;2024-02-15T09:42:21;97749.76;;;8.77;69.05
34205;BME280;20471;49.680;20.074;2024-02-15T09:45:17;97752.69;;;8.85;68.62
34205;BME280;20471;49.680;20.074;2024-02-15T09:48:25;97750.13;;;8.93;68.38
34205;BME280;20471;49.680;20.074;2024-02-15T09:51:32;97744.01;;;9.02;68.15
34205;BME280;20471;49.680;20.074;2024-02-15T09:54:25;97744.67;;;9.13;68.03
34205;BME280;20471;49.680;20.074;2024-02-15T09:57:11;97743.98;;;9.23;67.82
34205;BME280;20471;49.680;20.074;2024-02-15T10:00:18;97740.45;;;9.29;67.55
34205;BME280;20471;49.680;20.074;2024-02-15T10:09:40;97734.23;;;9.56;67.16
34205;BME280;20471;49.680;20.074;2024-02-15T10:12:26;97731.73;;;9.67;66.91
34205;BME280;20471;49.680;20.074;2024-02-15T10:15:30;97728.77;;;9.79;66.77
34205;BME280;20471;49.680;20.074;2024-02-15T10:18:37;97722.52;;;9.90;66.40
34205;BME280;20471;49.680;20.074;2024-02-15T10:21:46;97714.99;;;10.00;66.23
34205;BME280;20471;49.680;20.074;2024-02-15T10:27:53;97712.73;;;10.28;65.62
34205;BME280;20471;49.680;20.074;2024-02-15T10:30:48;97707.95;;;10.43;65.46
34205;BME280;20471;49.680;20.074;2024-02-15T10:33:59;97701.71;;;10.65;65.30
34205;BME280;20471;49.680;20.074;2024-02-15T10:37:24;97698.31;;;11.03;65.31
34205;BME280;20471;49.680;20.074;2024-02-15T10:42:58;97686.49;;;11.92;64.04
34205;BME280;20471;49.680;20.074;2024-02-15T10:46:04;97683.64;;;12.39;63.72
34205;BME280;20471;49.680;20.074;2024-02-15T10:48:50;97686.08;;;12.85;62.98
34205;BME280;20471;49.680;20.074;2024-02-15T10:51:59;97683.59;;;13.14;61.89
34205;BME280;20471;49.680;20.074;2024-02-15T10:55:08;97680.35;;;13.35;61.51
34205;BME280;20471;49.680;20.074;2024-02-15T10:58:06;97682.53;;;13.51;60.20
34205;BME280;20471;49.680;20.074;2024-02-15T11:04:23;97671.55;;;13.85;59.70
34205;BME280;20471;49.680;20.074;2024-02-15T11:07:14;97668.68;;;14.17;59.22
34205;BME280;20471;49.680;20.074;2024-02-15T11:13:24;97661.87;;;14.46;56.96
34205;BME280;20471;49.680;20.074;2024-02-15T11:16:55;97654.23;;;14.70;56.57
34205;BME280;20471;49.680;20.074;2024-02-15T11:29:07;97642.65;;;16.07;54.29
34205;BME280;20471;49.680;20.074;2024-02-15T11:38:32;97634.91;;;16.42;51.70
34205;BME280;20471;49.680;20.074;2024-02-15T11:41:25;97636.23;;;16.67;52.10
34205;BME280;20471;49.680;20.074;2024-02-15T11:44:33;97633.93;;;16.90;51.63
34205;BME280;20471;49.680;20.074;2024-02-15T11:47:37;97632.39;;;17.19;51.35
34205;BME280;20471;49.680;20.074;2024-02-15T11:53:46;97629.81;;;17.52;50.06
34205;BME280;20471;49.680;20.074;2024-02-15T12:00:07;97620.70;;;17.90;48.98
34205;BME280;20471;49.680;20.074;2024-02-15T12:03:41;97616.61;;;17.94;48.46
34205;BME280;20471;49.680;20.074;2024-02-15T12:07:06;97615.06;;;18.10;48.39
34205;BME280;20471;49.680;20.074;2024-02-15T12:10:21;97614.88;;;18.22;48.08
34205;BME280;20471;49.680;20.074;2024-02-15T12:14:11;97609.58;;;18.26;47.70
34205;BME280;20471;49.680;20.074;2024-02-15T12:20:46;97606.17;;;18.29;46.63
34205;BME280;20471;49.680;20.074;2024-02-15T12:23:53;97610.92;;;18.23;46.88
34205;BME280;20471;49.680;20.074;2024-02-15T12:26:29;97608.10;;;18.35;46.68
34205;BME280;20471;49.680;20.074;2024-02-15T12:29:41;97601.44;;;18.47;46.45
34205;BME280;20471;49.680;20.074;2024-02-15T12:32:24;97599.98;;;18.50;46.38
34205;BME280;20471;49.680;20.074;2024-02-15T12:38:46;97605.06;;;18.55;45.83
34205;BME280;20471;49.680;20.074;2024-02-15T12:41:27;97603.21;;;18.72;45.88
34205;BME280;20471;49.680;20.074;2024-02-15T12:47:23;97600.48;;;18.89;44.60
34205;BME280;20471;49.680;20.074;2024-02-15T12:50:53;97598.80;;;18.78;44.78
34205;BME280;20471;49.680;20.074;2024-02-15T12:53:41;97593.13;;;18.80;45.06
34205;BME280;20471;49.680;20.074;2024-02-15T12:56:49;97594.13;;;18.88;45.19
34205;BME280;20471;49.680;20.074;2024-02-15T13:02:54;97590.36;;;19.10;43.93
34205;BME280;20471;49.680;20.074;2024-02-15T13:09:07;97581.75;;;19.12;43.47
34205;BME280;20471;49.680;20.074;2024-02-15T13:15:19;97574.49;;;19.24;43.04
34205;BME280;20471;49.680;20.074;2024-02-15T13:18:34;97572.73;;;19.28;43.27
34205;BME280;20471;49.680;20.074;2024-02-15T13:21:39;97571.27;;;19.38;43.10
34205;BME280;20471;49.680;20.074;2024-02-15T13:24:29;97572.23;;;19.42;42.51
34205;BME280;20471;49.680;20.074;2024-02-15T13:27:10;97567.09;;;19.42;43.05
34205;BME280;20471;49.680;20.074;2024-02-15T13:33:15;97564.85;;;19.51;42.01
34205;BME280;20471;49.680;20.074;2024-02-15T13:36:21;97560.76;;;19.47;42.14
34205;BME280;20471;49.680;20.074;2024-02-15T13:39:13;97562.67;;;19.51;42.11
34205;BME280;20471;49.680;20.074;2024-02-15T13:42:08;97560.96;;;19.45;41.85
34205;BME280;20471;49.680;20.074;2024-02-15T13:44:48;97557.77;;;19.34;41.96
34205;BME280;20471;49.680;20.074;2024-02-15T13:50:46;97554.09;;;19.16;42.15
34205;BME280;20471;49.680;20.074;2024-02-15T13:53:27;97555.94;;;19.22;42.37
34205;BME280;20471;49.680;20.074;2024-02-15T13:56:08;97556.89;;;19.25;42.26
34205;BME280;20471;49.680;20.074;2024-02-15T13:58:41;97559.21;;;19.27;42.34
34205;BME280;20471;49.680;20.074;2024-02-15T14:04:05;97551.11;;;19.35;41.89
34205;BME280;20471;49.680;20.074;2024-02-15T14:07:00;97554.69;;;19.25;42.09
34205;BME280;20471;49.680;20.074;2024-02-15T14:13:05;97558.21;;;19.20;41.98
34205;BME280;20471;49.680;20.074;2024-02-15T14:16:14;97555.25;;;19.18;41.99
34205;BME280;20471;49.680;20.074;2024-02-15T14:19:01;97552.13;;;18.96;42.05
34205;BME280;20471;49.680;20.074;2024-02-15T14:22:01;97549.23;;;18.76;42.24
34205;BME280;20471;49.680;20.074;2024-02-15T14:25:09;97552.52;;;18.62;42.61
34205;BME280;20471;49.680;20.074;2024-02-15T14:30:56;97557.00;;;18.65;42.63
34205;BME280;20471;49.680;20.074;2024-02-15T14:34:00;97563.61;;;18.64;42.81
34205;BME280;20471;49.680;20.074;2024-02-15T14:36:48;97562.48;;;18.67;42.79
34205;BME280;20471;49.680;20.074;2024-02-15T14:48:59;97565.95;;;18.28;42.67
34205;BME280;20471;49.680;20.074;2024-02-15T14:57:59;97570.60;;;18.06;43.05
34205;BME280;20471;49.680;20.074;2024-02-15T15:01:02;97574.45;;;17.94;42.97
34205;BME280;20471;49.680;20.074;2024-02-15T15:04:11;97575.86;;;17.73;43.12
34205;BME280;20471;49.680;20.074;2024-02-15T15:06:59;97579.29;;;17.47;43.50
34205;BME280;20471;49.680;20.074;2024-02-15T15:09:48;97583.34;;;17.25;43.36
34205;BME280;20471;49.680;20.074;2024-02-15T15:13:14;97582.07;;;17.04;43.73
34205;BME280;20471;49.680;20.074;2024-02-15T15:16:20;97585.09;;;16.89;43.96
34205;BME280;20471;49.680;20.074;2024-02-15T15:19:28;97589.60;;;16.69;44.14
34205;BME280;20471;49.680;20.074;2024-02-15T15:22:35;97587.50;;;16.39;44.03
34205;BME280;20471;49.680;20.074;2024-02-15T15:25:42;97584.80;;;16.03;44.56
34205;BME280;20471;49.680;20.074;2024-02-15T15:28:39;97585.75;;;15.69;45.00
34205;BME280;20471;49.680;20.074;2024-02-15T15:31:46;97586.48;;;15.41;45.58
34205;BME280;20471;49.680;20.074;2024-02-15T15:34:53;97592.59;;;15.17;46.06
34205;BME280;20471;49.680;20.074;2024-02-15T15:38:00;97591.77;;;14.89;46.24
34205;BME280;20471;49.680;20.074;2024-02-15T15:43:45;97590.96;;;14.32;47.48
34205;BME280;20471;49.680;20.074;2024-02-15T15:46:58;97590.98;;;14.10;47.81
34205;BME280;20471;49.680;20.074;2024-02-15T15:50:03;97590.86;;;13.87;48.15
34205;BME280;20471;49.680;20.074;2024-02-15T15:53:13;97597.13;;;13.62;48.67
34205;BME280;20471;49.680;20.074;2024-02-15T15:55:57;97600.13;;;13.40;49.33
34205;BME280;20471;49.680;20.074;2024-02-15T15:59:05;97602.83;;;13.20;49.65
34205;BME280;20471;49.680;20.074;2024-02-15T16:05:25;97609.69;;;12.79;50.49
34205;BME280;20471;49.680;20.074;2024-02-15T16:08:11;97612.39;;;12.58;50.77
34205;BME280;20471;49.680;20.074;2024-02-15T16:11:08;97614.48;;;12.39;51.14
34205;BME280;20471;49.680;20.074;2024-02-15T16:14:14;97614.77;;;12.23;51.58
34205;BME280;20471;49.680;20.074;2024-02-15T16:17:22;97617.73;;;12.09;51.96
34205;BME280;20471;49.680;20.074;2024-02-15T16:33:48;97629.82;;;11.93;52.70
34205;BME280;20471;49.680;20.074;2024-02-15T16:36:15;97630.25;;;11.72;53.34
34205;BME280;20471;49.680;20.074;2024-02-15T16:38:41;97632.58;;;11.54;53.58
34205;BME280;20471;49.680;20.074;2024-02-15T16:41:07;97632.63;;;11.35;53.71
34205;BME280;20471;49.680;20.074;2024-02-15T16:43:34;97639.05;;;11.13;53.90
34205;BME280;20471;49.680;20.074;2024-02-15T16:46:00;97640.52;;;10.92;54.07
34205;BME280;20471;49.680;20.074;2024-02-15T16:48:29;97637.80;;;10.71;54.43
34205;BME280;20471;49.680;20.074;2024-02-15T16:50:55;97640.11;;;10.55;54.73
34205;BME280;20471;49.680;20.074;2024-02-15T16:53:23;97644.29;;;10.42;55.16
34205;BME280;20471;49.680;20.074;2024-02-15T16:55:50;97648.65;;;10.28;55.38
34205;BME280;20471;49.680;20.074;2024-02-15T16:58:17;97650.98;;;10.10;55.72
34205;BME280;20471;49.680;20.074;2024-02-15T17:00:46;97655.31;;;9.96;55.99
34205;BME280;20471;49.680;20.074;2024-02-15T17:03:12;97660.92;;;9.81;56.23
34205;BME280;20471;49.680;20.074;2024-02-15T17:05:41;97661.16;;;9.69;56.66
34205;BME280;20471;49.680;20.074;2024-02-15T17:08:07;97663.14;;;9.60;56.87
34205;BME280;20471;49.680;20.074;2024-02-15T17:10:35;97669.63;;;9.41;57.13
34205;BME280;20471;49.680;20.074;2024-02-15T17:13:02;97668.51;;;9.24;57.42
34205;BME280;20471;49.680;20.074;2024-02-15T17:15:29;97672.62;;;9.19;57.87
34205;BME280;20471;49.680;20.074;2024-02-15T17:17:57;97675.55;;;9.13;57.91
34205;BME280;20471;49.680;20.074;2024-02-15T17:20:23;97677.77;;;9.01;58.16
34205;BME280;20471;49.680;20.074;2024-02-15T17:22:51;97675.23;;;8.88;58.57
34205;BME280;20471;49.680;20.074;2024-02-15T17:25:17;97675.85;;;8.82;58.89
34205;BME280;20471;49.680;20.074;2024-02-15T17:27:44;97680.08;;;8.77;58.72
34205;BME280;20471;49.680;20.074;2024-02-15T17:30:11;97683.45;;;8.68;58.78
34205;BME280;20471;49.680;20.074;2024-02-15T17:32:38;97687.68;;;8.55;58.88
34205;BME280;20471;49.680;20.074;2024-02-15T17:35:07;97684.48;;;8.47;59.34
34205;BME280;20471;49.680;20.074;2024-02-15T17:37:38;97684.33;;;8.39;59.26
34205;BME280;20471;49.680;20.074;2024-02-15T17:40:06;97683.14;;;8.27;59.16
34205;BME280;20471;49.680;20.074;2024-02-15T17:42:32;97684.13;;;8.16;59.58
34205;BME280;20471;49.680;20.074;2024-02-15T17:44:58;97687.45;;;8.07;59.62
34205;BME280;20471;49.680;20.074;2024-02-15T17:47:26;97685.16;;;7.92;60.12
34205;BME280;20471;49.680;20.074;2024-02-15T17:49:52;97687.01;;;7.85;60.30
34205;BME280;20471;49.680;20.074;2024-02-15T17:52:22;97690.03;;;7.81;60.59
34205;BME280;20471;49.680;20.074;2024-02-15T17:54:48;97692.30;;;7.75;60.62
34205;BME280;20471;49.680;20.074;2024-02-15T17:57:16;97693.69;;;7.68;60.94
34205;BME280;20471;49.680;20.074;2024-02-15T17:59:42;97700.34;;;7.62;61.08
34205;BME280;20471;49.680;20.074;2024-02-15T18:02:08;97703.67;;;7.58;61.31
34205;BME280;20471;49.680;20.074;2024-02-15T18:04:35;97703.37;;;7.48;61.71
34205;BME280;20471;49.680;20.074;2024-02-15T18:07:01;97707.95;;;7.40;61.71
34205;BME280;20471;49.680;20.074;2024-02-15T18:09:27;97704.14;;;7.33;61.96
34205;BME280;20471;49.680;20.074;2024-02-15T18:11:54;97703.45;;;7.29;62.01
34205;BME280;20471;49.680;20.074;2024-02-15T18:14:22;97703.71;;;7.22;62.39
34205;BME280;20471;49.680;20.074;2024-02-15T18:16:49;97705.88;;;7.17;62.31
34205;BME280;20471;49.680;20.074;2024-02-15T18:19:16;97705.07;;;7.11;62.48
34205;BME280;20471;49.680;20.074;2024-02-15T18:21:45;97708.58;;;7.05;62.58
34205;BME280;20471;49.680;20.074;2024-02-15T18:24:11;97705.94;;;7.03;62.59
34205;BME280;20471;49.680;20.074;2024-02-15T18:26:38;97706.59;;;6.97;62.74
34205;BME280;20471;49.680;20.074;2024-02-15T18:29:04;97710.52;;;6.89;62.80
34205;BME280;20471;49.680;20.074;2024-02-15T18:31:31;97709.39;;;6.80;63.10
34205;BME280;20471;49.680;20.074;2024-02-15T18:34:01;97711.14;;;6.73;63.14
34205;BME280;20471;49.680;20.074;2024-02-15T18:36:32;97708.38;;;6.65;63.46
34205;BME280;20471;49.680;20.074;2024-02-15T18:38:59;97713.08;;;6.60;63.61
34205;BME280;20471;49.680;20.074;2024-02-15T18:41:25;97713.43;;;6.48;63.72
34205;BME280;20471;49.680;20.074;2024-02-15T18:43:53;97717.71;;;6.40;63.97
34205;BME280;20471;49.680;20.074;2024-02-15T18:46:20;97721.66;;;6.35;64.21
34205;BME280;20471;49.680;20.074;2024-02-15T18:48:47;97722.00;;;6.28;64.36
34205;BME280;20471;49.680;20.074;2024-02-15T18:51:15;97725.23;;;6.20;64.39
34205;BME280;20471;49.680;20.074;2024-02-15T18:53:41;97729.49;;;6.14;64.62
34205;BME280;20471;49.680;20.074;2024-02-15T18:56:14;97730.58;;;6.09;64.80
34205;BME280;20471;49.680;20.074;2024-02-15T18:58:42;97730.36;;;6.00;64.67
34205;BME280;20471;49.680;20.074;2024-02-15T19:01:09;97737.61;;;5.94;64.71
34205;BME280;20471;49.680;20.074;2024-02-15T19:03:36;97737.30;;;5.87;64.48
34205;BME280;20471;49.680;20.074;2024-02-15T19:06:03;97736.02;;;5.71;64.81